地図

経路データ

SID SEASON NUMBER BASIN SUBBASIN NAME ISO_TIME NATURE LAT LON WMO_WIND WMO_PRES WMO_AGENCY TRACK_TYPE DIST2LAND LANDFALL IFLAG USA_AGENCY USA_ATCF_ID USA_LAT USA_LON USA_RECORD USA_STATUS USA_WIND USA_PRES USA_SSHS USA_R34_NE USA_R34_SE USA_R34_SW USA_R34_NW USA_R50_NE USA_R50_SE USA_R50_SW USA_R50_NW USA_R64_NE USA_R64_SE USA_R64_SW USA_R64_NW USA_POCI USA_ROCI USA_RMW USA_EYE TOKYO_LAT TOKYO_LON TOKYO_GRADE TOKYO_WIND TOKYO_PRES TOKYO_R50_DIR TOKYO_R50_LONG TOKYO_R50_SHORT TOKYO_R30_DIR TOKYO_R30_LONG TOKYO_R30_SHORT TOKYO_LAND CMA_LAT CMA_LON CMA_CAT CMA_WIND CMA_PRES HKO_LAT HKO_LON HKO_CAT HKO_WIND HKO_PRES NEWDELHI_LAT NEWDELHI_LON NEWDELHI_GRADE NEWDELHI_WIND NEWDELHI_PRES NEWDELHI_CI NEWDELHI_DP NEWDELHI_POCI REUNION_LAT REUNION_LON REUNION_TYPE REUNION_WIND REUNION_PRES REUNION_TNUM REUNION_CI REUNION_RMW REUNION_R34_NE REUNION_R34_SE REUNION_R34_SW REUNION_R34_NW REUNION_R50_NE REUNION_R50_SE REUNION_R50_SW REUNION_R50_NW REUNION_R64_NE REUNION_R64_SE REUNION_R64_SW REUNION_R64_NW BOM_LAT BOM_LON BOM_TYPE BOM_WIND BOM_PRES BOM_TNUM BOM_CI BOM_RMW BOM_R34_NE BOM_R34_SE BOM_R34_SW BOM_R34_NW BOM_R50_NE BOM_R50_SE BOM_R50_SW BOM_R50_NW BOM_R64_NE BOM_R64_SE BOM_R64_SW BOM_R64_NW BOM_ROCI BOM_POCI BOM_EYE BOM_POS_METHOD BOM_PRES_METHOD NADI_LAT NADI_LON NADI_CAT NADI_WIND NADI_PRES WELLINGTON_LAT WELLINGTON_LON WELLINGTON_WIND WELLINGTON_PRES DS824_LAT DS824_LON DS824_STAGE DS824_WIND DS824_PRES TD9636_LAT TD9636_LON TD9636_STAGE TD9636_WIND TD9636_PRES TD9635_LAT TD9635_LON TD9635_WIND TD9635_PRES TD9635_ROCI NEUMANN_LAT NEUMANN_LON NEUMANN_CLASS NEUMANN_WIND NEUMANN_PRES MLC_LAT MLC_LON MLC_CLASS MLC_WIND MLC_PRES USA_GUST BOM_GUST BOM_GUST_PER REUNION_GUST REUNION_GUST_PER USA_SEAHGT USA_SEARAD_NE USA_SEARAD_SE USA_SEARAD_SW USA_SEARAD_NW STORM_SPEED STORM_DIR
1999062S12121 1999 20 SI WA NOT_NAMED 1999-03-03 00:00:00 TS -12.0000 121.400 main 214 205 O___________O_ jtwc_sh SH261999 -12.0000 121.400 25 -1 -12.0000 121.400 TC 25 9 258
1999062S12121 1999 20 SI WA NOT_NAMED 1999-03-03 03:00:00 TS -12.0902 120.975 main 208 204 P___________P_ SH261999 -12.0902 120.975 25 -1 -12.0902 120.975 TC 25 8 256
1999062S12121 1999 20 SI WA NOT_NAMED 1999-03-03 06:00:00 TS -12.2000 120.600 main 213 212 O___________O_ jtwc_sh SH261999 -12.2000 120.600 25 -1 -12.2000 120.600 TC 25 7 249
1999062S12121 1999 20 SI WA NOT_NAMED 1999-03-03 09:00:00 TS -12.3424 120.300 main 225 225 P___________P_ SH261999 -12.3424 120.300 25 -1 -12.3424 120.300 TC 25 7 243
1999062S12121 1999 20 SI WA NOT_NAMED 1999-03-03 12:00:00 TS -12.5000 120.000 main 252 252 O___________O_ jtwc_sh SH261999 -12.5000 120.000 25 -1 -12.5000 120.000 TC 25 7 245
1999062S12121 1999 20 SI WA NOT_NAMED 1999-03-03 15:00:00 TS -12.6348 119.652 main 271 271 P___________P_ SH261999 -12.6348 119.652 25 -1 -12.6348 119.652 TC 25 8 249
1999062S12121 1999 20 SI WA NOT_NAMED 1999-03-03 18:00:00 TS -12.8000 119.200 main 310 310 O___________O_ jtwc_sh SH261999 -12.8000 119.200 25 -1 -12.8000 119.200 TC 25 11 249
1999062S12121 1999 20 SI WA NOT_NAMED 1999-03-03 21:00:00 TS -13.0349 118.610 main 358 358 P___________P_ SH261999 -13.0349 118.610 25 -1 -13.0349 118.610 TC 25 14 248
1999062S12121 1999 20 SI WA NOT_NAMED 1999-03-04 00:00:00 TS -13.3000 117.900 main 423 423 O___________O_ jtwc_sh SH261999 -13.3000 117.900 25 -1 -13.3000 117.900 TC 25 15 250
1999062S12121 1999 20 SI WA NOT_NAMED 1999-03-04 03:00:00 TS -13.5724 117.123 main 488 488 P___________P_ SH261999 -13.5724 117.123 25 -1 -13.5724 117.123 TC 25 16 252
1999062S12121 1999 20 SI WA NOT_NAMED 1999-03-04 06:00:00 TS -13.8000 116.300 main 531 531 O___________O_ jtwc_sh SH261999 -13.8000 116.300 25 -1 -13.8000 116.300 TC 25 16 258
1999062S12121 1999 20 SI WA NOT_NAMED 1999-03-04 09:00:00 TS -13.9074 115.477 main 557 557 P___________P_ SH261999 -13.9074 115.477 25 -1 -13.9074 115.477 TC 25 16 263
1999062S12121 1999 20 SI WA NOT_NAMED 1999-03-04 12:00:00 TS -14.0000 114.700 main 582 582 O___________O_ jtwc_sh SH261999 -14.0000 114.700 25 -1 -14.0000 114.700 TC 25 14 258
1999062S12121 1999 20 SI WA NOT_NAMED 1999-03-04 15:00:00 TS -14.2068 114.065 main 607 607 P___________P_ SH261999 -14.2068 114.065 25 -1 -14.2068 114.065 TC 25 13 252
1999062S12121 1999 20 SI WA NOT_NAMED 1999-03-04 18:00:00 TS -14.4000 113.400 main 640 640 O___________O_ jtwc_sh SH261999 -14.4000 113.400 25 -1 -14.4000 113.400 TC 25 15 259
1999062S12121 1999 20 SI WA NOT_NAMED 1999-03-04 21:00:00 TS -14.5024 112.553 main 673 673 P___________P_ SH261999 -14.5024 112.553 25 -1 -14.5024 112.553 TC 25 17 267
1999062S12121 1999 20 SI WA NOT_NAMED 1999-03-05 00:00:00 TS -14.5000 111.600 main 683 676 O___________O_ jtwc_sh SH261999 -14.5000 111.600 25 -1 -14.5000 111.600 TC 25 19 273
1999062S12121 1999 20 SI WA NOT_NAMED 1999-03-05 03:00:00 TS -14.3874 110.600 main 682 678 P___________P_ SH261999 -14.3874 110.600 25 -1 -14.3874 110.600 TC 25 20 279
1999062S12121 1999 20 SI WA NOT_NAMED 1999-03-05 06:00:00 TS -14.2000 109.600 main 682 678 O___________O_ jtwc_sh SH261999 -14.2000 109.600 25 -1 -14.2000 109.600 TC 25 19 282
1999062S12121 1999 20 SI WA NOT_NAMED 1999-03-05 09:00:00 TS -13.9845 108.685 main 685 673 P___________P_ SH261999 -13.9845 108.685 25 -1 -13.9845 108.685 TC 25 18 283
1999062S12121 1999 20 SI WA NOT_NAMED 1999-03-05 12:00:00 TS -13.8000 107.800 main 675 669 O___________O_ jtwc_sh SH261999 -13.8000 107.800 25 -1 -13.8000 107.800 TC 25 18 279
1999062S12121 1999 20 SI WA NOT_NAMED 1999-03-05 15:00:00 TS -13.7048 106.885 main 679 679 P___________P_ SH261999 -13.7048 106.885 25 -1 -13.7048 106.885 TC 25 18 273
1999062S12121 1999 20 SI WA NOT_NAMED 1999-03-05 18:00:00 TS -13.7000 106.000 main 700 700 O___________O_ jtwc_sh SH261999 -13.7000 106.000 25 -1 -13.7000 106.000 TC 25 17 268
1999062S12121 1999 20 SI WA NOT_NAMED 1999-03-05 21:00:00 TS -13.7696 105.185 main 728 728 P___________P_ SH261999 -13.7696 105.185 25 -1 -13.7696 105.185 TC 25 16 263
1999062S12121 1999 20 SI WA NOT_NAMED 1999-03-06 00:00:00 TS -13.9000 104.400 main 760 760 O___________O_ jtwc_sh SH261999 -13.9000 104.400 25 -1 -13.9000 104.400 TC 25 16 259
1999062S12121 1999 20 SI WA NOT_NAMED 1999-03-06 03:00:00 TS -14.0725 103.570 main 810 810 P___________P_ SH261999 -14.0725 103.570 25 -1 -14.0725 103.570 TC 25 16 259
1999062S12121 1999 20 SI WA NOT_NAMED 1999-03-06 06:00:00 TS -14.2000 102.800 main 857 857 O___________O_ jtwc_sh SH261999 -14.2000 102.800 25 -1 -14.2000 102.800 TC 25 13 268
1999062S12121 1999 20 SI WA NOT_NAMED 1999-03-06 09:00:00 TS -14.1193 102.207 main 879 879 P___________P_ SH261999 -14.1193 102.207 25 -1 -14.1193 102.207 TC 25 12 275
1999062S12121 1999 20 SI WA NOT_NAMED 1999-03-06 12:00:00 TS -14.1000 101.600 main 907 907 O___________O_ jtwc_sh SH261999 -14.1000 101.600 25 -1 -14.1000 101.600 TC 25 14 257
1999062S12121 1999 20 SI WA NOT_NAMED 1999-03-06 15:00:00 TS -14.4353 100.766 main 977 977 P___________P_ SH261999 -14.4353 100.766 25 -1 -14.4353 100.766 TC 25 18 247
1999062S12121 1999 20 SI WA NOT_NAMED 1999-03-06 18:00:00 TS -14.8000 99.9000 main 1066 1066 O___________O_ jtwc_sh SH261999 -14.8000 99.9000 25 -1 -14.8000 99.9000 TC 25 16 253
1999062S12121 1999 20 SI WA NOT_NAMED 1999-03-06 21:00:00 TS -14.9021 99.1696 main 1118 1118 P___________P_ SH261999 -14.9021 99.1696 27 -1 -14.9021 99.1696 TC 27 14 266
1999062S12121 1999 20 SI WA NOT_NAMED 1999-03-07 00:00:00 TS -14.9000 98.5000 main 1165 1165 O___________O_ jtwc_sh SH261999 -14.9000 98.5000 30 -1 -14.9000 98.5000 TC 30 13 269
1999062S12121 1999 20 SI WA NOT_NAMED 1999-03-07 03:00:00 TS -14.9298 97.8351 main 1214 1214 P___________P_ SH261999 -14.9298 97.8351 30 -1 -14.9298 97.8351 TC 30 13 270
1999062S12121 1999 20 SI WA NOT_NAMED 1999-03-07 06:00:00 TS -14.9000 97.2000 main 1259 1259 O___________O_ jtwc_sh SH261999 -14.9000 97.2000 30 -1 -14.9000 97.2000 TC 30 12 278
1999062S12121 1999 20 SI WA NOT_NAMED 1999-03-07 09:00:00 TS -14.7572 96.5998 main 1298 1290 P___________P_ SH261999 -14.7572 96.5998 30 -1 -14.7572 96.5998 TC 30 12 285
1999062S12121 1999 20 SI WA NOT_NAMED 1999-03-07 12:00:00 TS -14.6000 96.0000 main 1331 1331 O___________O_ jtwc_sh SH261999 -14.6000 96.0000 30 -1 -14.6000 96.0000 TC 30 13 282
1999062S12121 1999 20 SI WA NOT_NAMED 1999-03-07 15:00:00 TS -14.5051 95.3274 main 1383 1383 P___________P_ SH261999 -14.5051 95.3274 30 -1 -14.5051 95.3274 TC 30 13 275
1999062S12121 1999 20 SI WA NOT_NAMED 1999-03-07 18:00:00 TS -14.5000 94.7000 main 1435 1435 O___________O_ jtwc_sh SH261999 -14.5000 94.7000 30 -1 -14.5000 94.7000 TC 30 10 262
1999062S12121 1999 20 SI WA NOT_NAMED 1999-03-07 21:00:00 TS -14.6417 94.2877 main 1472 1472 P___________P_ SH261999 -14.6417 94.2877 32 -1 -14.6417 94.2877 TC 32 9 251
1999062S12121 1999 20 SI WA NOT_NAMED 1999-03-08 00:00:00 TS -14.8000 93.8000 main 1524 1524 O___________O_ jtwc_sh SH261999 -14.8000 93.8000 35 0 -14.8000 93.8000 TC 35 13 261
1999062S12121 1999 20 SI WA NOT_NAMED 1999-03-08 03:00:00 TS -14.8453 92.9676 main 1581 1581 P___________P_ SH261999 -14.8453 92.9676 32 -1 -14.8453 92.9676 TC 32 17 270
1999062S12121 1999 20 SI WA NOT_NAMED 1999-03-08 06:00:00 TS -14.8000 92.0000 main 1651 1651 O___________O_ jtwc_sh SH261999 -14.8000 92.0000 30 -1 -14.8000 92.0000 TC 30 18 276
1999062S12121 1999 20 SI WA NOT_NAMED 1999-03-08 09:00:00 TS -14.6497 91.0921 main 1680 1680 P___________P_ SH261999 -14.6497 91.0921 30 -1 -14.6497 91.0921 TC 30 18 280
1999062S12121 1999 20 SI WA NOT_NAMED 1999-03-08 12:00:00 TS -14.5000 90.2000 main 1723 1723 O___________O_ jtwc_sh SH261999 -14.5000 90.2000 30 -1 -14.5000 90.2000 TC 30 17 274
1999062S12121 1999 20 SI MM NOT_NAMED 1999-03-08 15:00:00 TS -14.5218 89.3733 main 1773 1773 P___________P_ SH261999 -14.5218 89.3733 30 -1 -14.5218 89.3733 TC 30 16 270
1999062S12121 1999 20 SI MM NOT_NAMED 1999-03-08 18:00:00 TS -14.5000 88.5000 main 1833 1833 O___________O_ jtwc_sh SH261999 -14.5000 88.5000 30 -1 -14.5000 88.5000 TC 30 19 278
1999062S12121 1999 20 SI MM NOT_NAMED 1999-03-08 21:00:00 TS -14.2531 87.4634 main 1887 1886 P___________P_ SH261999 -14.2453 87.4495 30 -1 -14.2688 87.4912 TC 30 21 286
1999062S12121 1999 20 SI MM NOT_NAMED 1999-03-09 00:00:00 TS -13.9000 86.4000 main 1939 1939 O___________O_ jtwc_sh SH261999 -13.9000 86.4000 30 -1 -13.9000 86.4000 TC 30 20 290
1999062S12121 1999 20 SI MM NOT_NAMED 1999-03-09 03:00:00 NR -13.5691 85.5426 main 1988 1980 P_____________ SH261999 -13.5691 85.5426 30 -1 TC 18 290
1999062S12121 1999 20 SI MM NOT_NAMED 1999-03-09 06:00:00 NR -13.3000 84.7000 main 2033 2033 O_____________ jtwc_sh SH261999 -13.3000 84.7000 30 -1 18 282
1999062S12121 1999 20 SI MM NOT_NAMED 1999-03-09 09:00:00 NR -13.1775 83.7079 main 2112 2112 P_____________ SH261999 -13.1775 83.7079 30 -1 20 276
1999062S12121 1999 20 SI MM NOT_NAMED 1999-03-09 12:00:00 NR -13.1000 82.7000 main 2141 2122 O_____________ jtwc_sh SH261999 -13.1000 82.7000 30 -1 19 277
1999062S12121 1999 20 SI MM NOT_NAMED 1999-03-09 15:00:00 NR -12.9566 81.8226 main 2121 2095 P_____________ SH261999 -12.9566 81.8226 27 -1 18 280
1999062S12121 1999 20 SI MM NOT_NAMED 1999-03-09 18:00:00 NR -12.8000 80.9000 main 2095 2074 O_____________ jtwc_sh SH261999 -12.8000 80.9000 25 -1 20 279
1999062S12121 1999 20 SI MM NOT_NAMED 1999-03-09 21:00:00 NR -12.6346 79.8098 main 2074 2068 P_____________ SH261999 -12.6346 79.8098 25 -1 23 278
1999062S12121 1999 20 SI MM NOT_NAMED 1999-03-10 00:00:00 NR -12.5000 78.6000 main 2073 2068 O_____________ jtwc_sh SH261999 -12.5000 78.6000 25 -1 24 275
1999062S12121 1999 20 SI MM NOT_NAMED 1999-03-10 03:00:00 NR -12.4042 77.3521 main 2080 2080 P_____________ SH261999 -12.4042 77.3521 25 -1 25 272
1999062S12121 1999 20 SI MM NOT_NAMED 1999-03-10 06:00:00 NR -12.4000 76.0000 main 2112 1982 O_____________ jtwc_sh SH261999 -12.4000 76.0000 25 -1 28 268
1999062S12121 1999 20 SI MM NOT_NAMED 1999-03-10 09:00:00 NR -12.5207 74.4631 main 1982 1838 P_____________ SH261999 -12.5207 74.4631 25 -1 29 264
1999062S12121 1999 20 SI MM NOT_NAMED 1999-03-10 12:00:00 NR -12.7000 73.0000 main 1828 1714 O_____________ jtwc_sh SH261999 -12.7000 73.0000 25 -1 26 262
1999062S12121 1999 20 SI MM NOT_NAMED 1999-03-10 15:00:00 NR -12.8598 71.8500 main 1704 1624 P_____________ SH261999 -12.8598 71.8500 25 -1 21 262
1999062S12121 1999 20 SI MM NOT_NAMED 1999-03-10 18:00:00 NR -13.0000 70.9000 main 1614 O_____________ jtwc_sh SH261999 -13.0000 70.9000 25 -1 19 261

IBTrACS Databaseについて

本データベースは、米国NOAAが公開する1842年以降の世界の熱帯低気圧のベストトラックデータアーカイブInternational Best Track Archive for Climate Stewardship (IBTrACS)を、ウェブで閲覧しやすい形式に変換したものです。

最終更新日:2021-11-26